Flight Track Log - Related Links

Times and Time Zones

All times are in EDT time to prevent confusion due to time zone crossing. See the MAS802 flight status page for this flight to view local times or setup timezone preferences in your user account.

Time Position Orientation Groundspeed Altitude Reporting Facility
EDT Latitude Longitude Course Direction KTS MPH feet Rate Location/Type
Fri 01:52:13 AM 2.8080 101.6830 328° Northwest 197 227 2,100  Level FlightAware ADS-B
Fri 01:52:30 AM 2.8190 101.6760 328° Northwest 197 227 2,600 2,400 Climbing FlightAware ADS-B
Fri 01:52:53 AM 2.8370 101.6690 339° North 186 214 3,700 2,538 Climbing FlightAware ADS-B
Fri 01:53:22 AM 2.8570 101.6850 39° Northeast 191 220 4,800 1,700 Climbing FlightAware ADS-B
Fri 01:53:53 AM 2.8690 101.7120 66° East 219 252 5,400 952 Climbing FlightAware ADS-B
Fri 01:54:25 AM 2.8810 101.7370 64° Northeast 253 291 5,800 857 Climbing FlightAware ADS-B
Fri 01:54:49 AM 2.8910 101.7590 66° East 280 322 6,200 2,291 Climbing FlightAware ADS-B
Fri 01:55:20 AM 2.9170 101.8160 65° Northeast 305 351 7,900 2,951 Climbing FlightAware ADS-B
Fri 01:55:50 AM 2.9350 101.8550 65° Northeast 315 362 9,200 2,282 Climbing FlightAware ADS-B
Fri 01:56:31 AM 2.9610 101.9110 65° Northeast 333 383 10,600 1,800 Climbing FlightAware ADS-B
Fri 01:57:10 AM 2.9870 101.9690 66° East 367 422 11,600 2,286 Climbing FlightAware ADS-B
Fri 01:57:55 AM 3.0190 102.0380 65° Northeast 375 432 13,800 2,929 Climbing FlightAware ADS-B
Fri 01:58:34 AM 3.0470 102.1000 66° East 377 434 15,700 2,458 Climbing FlightAware ADS-B
Fri 01:59:18 AM 3.0760 102.1630 65° Northeast 391 450 17,200 2,096 Climbing FlightAware ADS-B
Fri 01:59:57 AM 3.1100 102.2360 65° Northeast 401 461 18,600 2,561 Climbing FlightAware ADS-B
Fri 02:00:40 AM 3.1420 102.3060 65° Northeast 397 457 20,700 2,667 Climbing FlightAware ADS-B
Fri 02:01:18 AM 3.1670 102.3740 70° East 400 460 22,200 2,418 Climbing FlightAware ADS-B
Fri 02:01:47 AM 3.1780 102.4290 79° East 404 465 23,400 2,219 Climbing FlightAware ADS-B
Fri 02:02:31 AM 3.1950 102.5080 78° East 407 468 24,900 1,884 Climbing FlightAware ADS-B
Fri 02:03:13 AM 3.2090 102.5770 79° East 410 472 26,100 1,214 Climbing FlightAware ADS-B
Fri 02:03:55 AM 3.2240 102.6490 78° East 410 472 26,600 1,786 Climbing FlightAware ADS-B
Fri 02:04:37 AM 3.2430 102.7430 79° East 418 481 28,600 1,870 Climbing FlightAware ADS-B
Fri 02:05:12 AM 3.2560 102.8060 78° East 427 491 29,000 118 Climbing FlightAware ADS-B
Fri 02:07:00 AM 3.3610 102.9669 57° Northeast  Level Estimated
Fri 02:08:00 AM 3.4194 103.0564 57° Northeast  Level Estimated
Fri 02:08:01 AM 3.3280 103.1550 57° Northeast 430 495 29,000  Level FlightAware ADS-B
Fri 02:08:41 AM 3.3430 103.2290 79° East 430 495 29,000  Level FlightAware ADS-B
Fri 02:09:21 AM 3.3570 103.2950 78° East 430 495 29,000  Level FlightAware ADS-B
Fri 02:10:09 AM 3.3740 103.3750 78° East 430 495 29,000  Level FlightAware ADS-B
Fri 02:10:39 AM 3.4070 103.4560 68° East 427 491 29,000 664 Level FlightAware ADS-B
Fri 02:13:00 AM 3.5462 103.6648 56° Northeast  Level Estimated
Fri 02:14:00 AM 3.6054 103.7536 56° Northeast  Level Estimated
Fri 02:14:49 AM 3.7070 103.8660 56° Northeast 453 521 32,100  Level FlightAware ADS-B
Fri 02:15:29 AM 3.7530 103.9300 54° Northeast 449 517 33,100 1,301 Climbing FlightAware ADS-B
Fri 02:16:12 AM 3.8060 104.0020 54° Northeast 436 502 33,900 1,301 Climbing FlightAware ADS-B
Fri 02:16:52 AM 3.8520 104.0660 54° Northeast 433 498 34,900 1,291 Climbing FlightAware ADS-B
Fri 02:17:31 AM 3.9000 104.1320 54° Northeast 435 501 35,600 682 Climbing FlightAware ADS-B
Fri 02:18:20 AM 3.9520 104.2020 53° Northeast 435 501 35,900 247 Climbing FlightAware ADS-B
Fri 02:19:08 AM 4.0100 104.2830 54° Northeast 437 503 36,000 124 Climbing FlightAware ADS-B
Fri 02:19:57 AM 4.0750 104.3720 54° Northeast 439 505 36,100 175 Climbing FlightAware ADS-B
Fri 02:20:51 AM 4.1310 104.4470 53° Northeast 439 505 36,300 133 Climbing FlightAware ADS-B
Fri 02:21:27 AM 4.1690 104.4970 53° Northeast 439 505 36,300  Level FlightAware ADS-B
Fri 02:22:15 AM 4.2190 104.5630 53° Northeast 439 505 36,300  Level FlightAware ADS-B
Fri 02:22:52 AM 4.2570 104.6140 53° Northeast 439 505 36,300  Level FlightAware ADS-B
Fri 02:23:40 AM 4.3070 104.6800 53° Northeast 439 505 36,300  Level FlightAware ADS-B
Fri 02:24:17 AM 4.3450 104.7320 54° Northeast 439 505 36,300  Level FlightAware ADS-B
Fri 02:25:05 AM 4.3950 104.7980 53° Northeast 439 505 36,300  Level FlightAware ADS-B
Fri 02:25:37 AM 4.4290 104.8420 52° Northeast 439 505 36,300  Level FlightAware ADS-B
Fri 02:26:23 AM 4.4760 104.9060 54° Northeast 439 505 36,300 1,780 Level FlightAware ADS-B
Fri 02:27:08 AM 4.5750 105.0560 56° Northeast 431 496 39,000 1,397 Climbing FlightAware ADS-B
Fri 02:28:19 AM 4.6530 105.1620 54° Northeast 431 496 39,000  Level FlightAware ADS-B
Fri 02:28:59 AM 4.7070 105.2360 54° Northeast 426 490 39,000  Level FlightAware ADS-B
Fri 02:29:44 AM 4.7560 105.3030 54° Northeast 428 493 39,000  Level FlightAware ADS-B
Fri 02:30:15 AM 4.7950 105.3570 54° Northeast 416 479 39,000  Level FlightAware ADS-B
Fri 02:31:05 AM 4.8680 105.4170 39° Northeast 419 482 39,000  Level FlightAware ADS-B
Fri 02:32:02 AM 4.9560 105.4740 33° Northeast 419 482 39,000  Level FlightAware ADS-B
Fri 02:32:38 AM 5.0060 105.5060 33° Northeast 419 482 39,000  Level FlightAware ADS-B
Fri 02:33:26 AM 5.0720 105.5500 34° Northeast 419 482 39,000  Level FlightAware ADS-B
Fri 02:34:02 AM 5.1220 105.5820 33° Northeast 419 482 39,000  Level FlightAware ADS-B
Fri 02:34:50 AM 5.1880 105.6250 33° Northeast 419 482 39,000  Level FlightAware ADS-B
Fri 02:35:27 AM 5.2390 105.6590 34° Northeast 419 482 39,000  Level FlightAware ADS-B
Fri 02:36:14 AM 5.3040 105.7010 33° Northeast 419 482 39,000  Level FlightAware ADS-B
Fri 02:36:50 AM 5.3540 105.7330 33° Northeast 419 482 39,000  Level FlightAware ADS-B
Fri 02:37:38 AM 5.4200 105.7770 34° Northeast 419 482 39,000  Level FlightAware ADS-B
Fri 02:38:14 AM 5.4700 105.8090 33° Northeast 419 482 39,000  Level FlightAware ADS-B
Fri 02:39:02 AM 5.5360 105.8520 33° Northeast 419 482 39,000  Level FlightAware ADS-B
Fri 02:39:39 AM 5.5880 105.8860 33° Northeast 419 482 39,000  Level FlightAware ADS-B
Fri 02:40:03 AM 5.6210 105.9070 32° Northeast 419 482 39,000  Level FlightAware ADS-B
Fri 02:41:13 AM 5.7170 105.9700 33° Northeast 419 482 39,000 -2,409 Level FlightAware ADS-B
Fri 02:43:00 AM 5.8218 106.1397 58° Northeast  Level Estimated
Fri 02:44:00 AM 5.8806 106.2348 58° Northeast  Level Estimated
Fri 02:45:00 AM 5.9393 106.3300 58° Northeast  Level Estimated
Fri 02:46:00 AM 5.9980 106.4252 58° Northeast  Level Estimated
Fri 02:47:00 AM 6.0567 106.5204 58° Northeast  Level Estimated
Fri 02:48:00 AM 6.1154 106.6157 58° Northeast  Level Estimated
Fri 02:49:00 AM 6.1741 106.7109 58° Northeast  Level Estimated
Fri 02:50:00 AM 6.2328 106.8062 58° Northeast  Level Estimated
Fri 02:51:00 AM 6.2914 106.9015 58° Northeast  Level Estimated
Fri 02:51:33 AM 2.9810 101.9550 58° Northeast 364 419 11,300  Level FlightAware ADS-B
Fri 02:52:00 AM 6.3500 106.9968 58° Northeast  Level Estimated
Fri 02:52:24 AM 3.0120 102.0210 65° Northeast 364 419 11,300  Level FlightAware ADS-B
Fri 02:53:01 AM 3.0340 102.0690 65° Northeast 364 419 11,300 7,420 Level FlightAware ADS-B
Fri 02:55:00 AM 3.1533 102.2553 57° Northeast  Level Estimated
Fri 02:56:00 AM 3.2134 102.3492 57° Northeast  Level Estimated
Fri 02:56:08 AM 7.3570 107.0450 57° Northeast 434 499 39,000  Level FlightAware ADS-B
Fri 02:57:15 AM 7.4690 107.1190 33° Northeast 431 496 39,000  Level FlightAware ADS-B
Fri 02:58:01 AM 7.5470 107.1700 33° Northeast 431 496 39,000  Level FlightAware ADS-B
Fri 02:58:35 AM 7.5950 107.2010 33° Northeast 431 496 39,000  Level FlightAware ADS-B
Fri 02:59:26 AM 7.6880 107.2630 33° Northeast 422 486 39,000  Level FlightAware ADS-B
Fri 03:00:07 AM 7.7590 107.2980 26° Northeast 424 488 39,000  Level FlightAware ADS-B
Fri 03:00:50 AM 7.8380 107.3310 22° Northeast 429 494 39,000  Level FlightAware ADS-B
Fri 03:01:28 AM 7.9080 107.3590 22° Northeast 432 497 39,000  Level FlightAware ADS-B
Fri 03:02:10 AM 7.9870 107.3920 22° Northeast 433 498 39,000  Level FlightAware ADS-B
Fri 03:02:54 AM 8.0680 107.4260 23° Northeast 433 498 39,000  Level FlightAware ADS-B
Fri 03:03:34 AM 8.1430 107.4570 22° Northeast 432 497 39,000  Level FlightAware ADS-B
Fri 03:04:18 AM 8.2240 107.4910 23° Northeast 432 497 39,000  Level FlightAware ADS-B
Fri 03:04:58 AM 8.2990 107.5220 22° Northeast 433 498 39,000  Level FlightAware ADS-B
Fri 03:05:36 AM 8.3680 107.5490 21° North 434 499 39,000  Level FlightAware ADS-B
Fri 03:06:24 AM 8.4600 107.5880 23° Northeast 435 501 39,000  Level FlightAware ADS-B
Fri 03:07:20 AM 8.5620 107.6350 24° Northeast 435 501 39,000  Level FlightAware ADS-B
Fri 03:08:00 AM 8.6360 107.6680 24° Northeast 434 499 39,000  Level FlightAware ADS-B
Fri 03:08:44 AM 8.7170 107.7060 25° Northeast 434 499 39,000  Level FlightAware ADS-B
Fri 03:09:24 AM 8.7890 107.7420 26° Northeast 434 499 39,000  Level FlightAware ADS-B
Fri 03:10:08 AM 8.8650 107.7850 29° Northeast 434 499 39,000  Level FlightAware ADS-B
Fri 03:10:47 AM 8.9310 107.8280 33° Northeast 435 501 39,000  Level FlightAware ADS-B
Fri 03:11:25 AM 8.9610 107.8490 35° Northeast 436 502 39,000  Level FlightAware ADS-B
Fri 03:12:11 AM 9.0720 107.9280 35° Northeast 440 506 39,000  Level FlightAware ADS-B
Fri 03:12:51 AM 9.1370 107.9750 36° Northeast 441 507 39,000  Level FlightAware ADS-B
Fri 03:13:35 AM 9.2090 108.0310 38° Northeast 446 513 39,000  Level FlightAware ADS-B
Fri 03:14:15 AM 9.2600 108.0980 52° Northeast 449 517 39,000  Level FlightAware ADS-B
Fri 03:14:59 AM 9.3140 108.1730 54° Northeast 452 520 39,000  Level FlightAware ADS-B
Fri 03:15:39 AM 9.3630 108.2420 54° Northeast 456 525 39,000  Level FlightAware ADS-B
Fri 03:16:23 AM 9.4170 108.3180 54° Northeast 459 528 39,000  Level FlightAware ADS-B
Fri 03:17:03 AM 9.4620 108.3920 58° Northeast 453 521 39,000  Level FlightAware ADS-B
Fri 03:17:47 AM 9.5080 108.4700 59° Northeast 449 517 39,000  Level FlightAware ADS-B
Fri 03:18:29 AM 9.5550 108.5460 58° Northeast 446 513 39,000  Level FlightAware ADS-B
Fri 03:19:09 AM 9.5970 108.6180 59° Northeast 445 512 39,000  Level FlightAware ADS-B
Fri 03:19:45 AM 9.6330 108.6830 61° Northeast 443 510 39,000  Level FlightAware ADS-B
Fri 03:20:35 AM 9.6830 108.7710 60° Northeast 441 507 39,000  Level FlightAware ADS-B
Fri 03:21:09 AM 9.7160 108.8330 62° Northeast 440 506 39,000  Level FlightAware ADS-B
Fri 03:21:59 AM 9.7640 108.9220 61° Northeast 438 504 39,000  Level FlightAware ADS-B
Fri 03:22:52 AM 9.8120 109.0130 62° Northeast 438 504 39,000  Level FlightAware ADS-B
Fri 03:23:28 AM 9.8420 109.0680 61° Northeast 438 504 39,000  Level FlightAware ADS-B
Fri 03:24:24 AM 9.8870 109.1860 69° East 442 509 39,000  Level FlightAware ADS-B
Fri 03:25:15 AM 9.9260 109.2780 67° East 443 510 39,000  Level FlightAware ADS-B
Fri 03:26:12 AM 9.9720 109.3910 68° East 444 511 39,000  Level FlightAware ADS-B
Fri 03:26:49 AM 9.9980 109.4510 66° East 444 511 39,000  Level FlightAware ADS-B
Fri 03:27:37 AM 10.0300 109.5300 68° East 444 511 39,000  Level FlightAware ADS-B
Fri 03:28:13 AM 10.0550 109.5890 67° East 444 511 39,000  Level FlightAware ADS-B
Fri 03:29:14 AM 10.0970 109.6880 67° East 444 511 39,000  Level FlightAware ADS-B
Fri 03:29:50 AM 10.1210 109.7470 68° East 444 511 39,000  Level FlightAware ADS-B
Fri 03:30:42 AM 10.1570 109.8320 67° East 444 511 39,000  Level FlightAware ADS-B
Fri 03:31:28 AM 10.1880 109.9070 67° East 444 511 39,000  Level FlightAware ADS-B
Fri 03:32:31 AM 10.2310 110.0100 67° East 444 511 39,000  Level FlightAware ADS-B
Fri 03:33:06 AM 10.2550 110.0670 67° East 444 511 39,000  Level FlightAware ADS-B
Fri 03:33:54 AM 10.2880 110.1450 67° East 444 511 39,000  Level FlightAware ADS-B
Fri 03:34:30 AM 10.3120 110.2040 68° East 444 511 39,000  Level FlightAware ADS-B
Fri 03:35:18 AM 10.3450 110.2830 67° East 444 511 39,000 -50 Level FlightAware ADS-B
Fri 03:37:00 AM 10.4182 110.4606 67° East  Level Estimated
Fri 03:38:00 AM 10.4612 110.5651 67° East  Level Estimated
Fri 03:39:00 AM 10.5042 110.6696 67° East  Level Estimated
Fri 03:40:00 AM 10.5472 110.7742 67° East  Level Estimated
Fri 03:41:00 AM 10.5901 110.8788 67° East  Level Estimated
Fri 03:42:00 AM 10.6330 110.9834 67° East  Level Estimated
Fri 03:43:00 AM 10.6758 111.0881 67° East  Level Estimated
Fri 03:44:00 AM 10.7186 111.1927 67° East  Level Estimated
Fri 03:45:00 AM 10.7614 111.2974 67° East  Level Estimated
Fri 03:46:00 AM 10.8042 111.4022 67° East  Level Estimated
Fri 03:47:00 AM 10.8469 111.5070 67° East  Level Estimated
Fri 03:48:00 AM 10.8896 111.6118 67° East  Level Estimated
Fri 03:49:00 AM 10.9322 111.7166 67° East  Level Estimated
Fri 03:50:00 AM 10.9748 111.8214 68° East  Level Estimated
Fri 03:51:00 AM 11.0174 111.9263 68° East  Level Estimated
Fri 03:52:00 AM 11.0599 112.0313 68° East  Level Estimated
Fri 03:53:00 AM 11.1024 112.1362 68° East  Level Estimated
Fri 03:54:00 AM 11.1449 112.2412 68° East  Level Estimated
Fri 03:55:00 AM 11.1873 112.3462 68° East  Level Estimated
Fri 03:56:00 AM 11.2297 112.4512 68° East  Level Estimated
Fri 03:57:00 AM 11.2720 112.5563 68° East  Level Estimated
Fri 03:58:00 AM 11.3143 112.6614 68° East  Level Estimated
Fri 03:59:00 AM 11.3566 112.7666 68° East  Level Estimated
Fri 04:00:00 AM 11.3988 112.8717 68° East  Level Estimated
Fri 04:01:00 AM 11.4410 112.9769 68° East  Level Estimated
Fri 04:02:00 AM 11.4832 113.0822 68° East  Level Estimated
Fri 04:03:00 AM 11.5253 113.1874 68° East  Level Estimated
Fri 04:04:00 AM 11.5674 113.2927 68° East  Level Estimated
Fri 04:05:00 AM 11.6095 113.3980 68° East  Level Estimated
Fri 04:06:00 AM 11.6515 113.5034 68° East  Level Estimated
Fri 04:07:00 AM 11.6934 113.6088 68° East  Level Estimated
Fri 04:08:00 AM 11.7354 113.7142 68° East  Level Estimated
Fri 04:09:00 AM 11.7773 113.8197 68° East  Level Estimated
Fri 04:10:00 AM 11.8191 113.9251 68° East  Level Estimated
Fri 04:11:00 AM 11.8610 114.0307 68° East  Level Estimated
Fri 04:12:00 AM 11.9027 114.1362 68° East  Level Estimated
Fri 04:13:00 AM 11.9445 114.2418 68° East  Level Estimated
Fri 04:14:00 AM 11.9862 114.3474 68° East  Level Estimated
Fri 04:15:00 AM 12.0278 114.4531 68° East  Level Estimated
Fri 04:16:00 AM 12.0695 114.5587 68° East  Level Estimated
Fri 04:17:00 AM 12.1110 114.6645 68° East  Level Estimated
Fri 04:18:00 AM 12.1526 114.7702 68° East  Level Estimated
Fri 04:19:00 AM 12.1941 114.8760 68° East  Level Estimated
Fri 04:20:00 AM 12.2355 114.9818 68° East  Level Estimated
Fri 04:21:00 AM 12.2769 115.0876 68° East  Level Estimated
Fri 04:22:00 AM 12.3183 115.1935 68° East  Level Estimated
Fri 04:23:00 AM 12.3597 115.2994 68° East  Level Estimated
Fri 04:24:00 AM 12.4010 115.4054 68° East  Level Estimated
Fri 04:25:00 AM 12.4422 115.5114 68° East  Level Estimated
Fri 04:26:00 AM 12.4834 115.6174 68° East  Level Estimated
Fri 04:27:00 AM 12.5246 115.7234 68° East  Level Estimated
Fri 04:28:00 AM 12.5657 115.8295 68° East  Level Estimated
Fri 04:29:00 AM 12.6068 115.9356 68° East  Level Estimated
Fri 04:30:00 AM 12.6479 116.0417 68° East  Level Estimated
Fri 04:31:00 AM 12.6889 116.1479 68° East  Level Estimated
Fri 04:32:00 AM 12.7298 116.2542 68° East  Level Estimated
Fri 04:33:00 AM 12.7708 116.3604 68° East  Level Estimated
Fri 04:34:00 AM 12.8117 116.4667 68° East  Level Estimated
Fri 04:34:30 AM 13.0470 117.3710 68° East 438 504 36,000  Level FlightAware ADS-B
Fri 04:34:59 AM 13.0670 117.4190 67° East 439 505 36,000  Level FlightAware ADS-B
Fri 04:35:00 AM 12.8525 116.5730 68° East  Level Estimated
Fri 04:35:26 AM 13.0920 117.4810 68° East 438 504 36,000  Level FlightAware ADS-B
Fri 04:37:07 AM 13.1700 117.6730 67° East 440 506 36,000  Level FlightAware ADS-B
Fri 04:38:14 AM 13.2230 117.8020 67° East 442 509 36,000  Level FlightAware ADS-B
Fri 04:38:38 AM 13.2410 117.8480 68° East 442 509 36,000  Level FlightAware ADS-B
Fri 04:39:34 AM 13.2860 117.9570 67° East 441 507 36,000  Level FlightAware ADS-B
Fri 04:40:06 AM 13.3110 118.0190 67° East 436 502 36,000  Level FlightAware ADS-B
Fri 04:41:21 AM 13.3680 118.1600 67° East 428 493 36,000  Level FlightAware ADS-B
Fri 04:41:57 AM 13.3940 118.2240 67° East 426 490 36,000  Level FlightAware ADS-B
Fri 04:42:41 AM 13.4280 118.3070 67° East 425 489 36,000  Level FlightAware ADS-B
Fri 04:43:16 AM 13.4560 118.3750 67° East 423 487 36,000  Level FlightAware ADS-B
Fri 04:43:41 AM 13.4740 118.4220 68° East 423 487 36,000  Level FlightAware ADS-B
Fri 04:44:30 AM 13.5110 118.5120 67° East 422 486 36,000  Level FlightAware ADS-B
Fri 04:45:07 AM 13.5390 118.5810 67° East 424 488 36,000  Level FlightAware ADS-B
Fri 04:46:20 AM 13.5910 118.7180 69° East 425 489 36,000  Level FlightAware ADS-B
Fri 04:47:49 AM 13.6260 118.8940 78° East 426 490 36,000  Level FlightAware ADS-B
Fri 04:48:44 AM 13.6470 119.0050 79° East 430 495 36,000  Level FlightAware ADS-B
Fri 04:49:31 AM 13.6640 119.0950 79° East 432 497 36,000 -966 Level FlightAware ADS-B
Fri 04:52:00 AM 13.7789 119.3541 65° Northeast  Level Estimated
Fri 04:52:09 AM 13.7240 119.4140 65° Northeast 428 493 32,700  Level FlightAware ADS-B
Fri 04:53:03 AM 13.7450 119.5230 79° East 419 482 30,600 -1,270 Descending FlightAware ADS-B
Fri 04:54:26 AM 13.7720 119.6660 79° East 416 479 29,800 -366 Descending FlightAware ADS-B
Fri 04:55:14 AM 13.7870 119.7450 79° East 416 479 29,800 -3,825 Level FlightAware ADS-B
Fri 04:55:46 AM 13.8030 119.8330 79° East 397 457 24,700 -4,565 Descending FlightAware ADS-B
Fri 04:56:46 AM 13.8240 119.9450 79° East 407 468 22,800 -2,165 Descending FlightAware ADS-B
Fri 04:57:59 AM 13.8490 120.0770 79° East 405 466 19,900 -2,462 Descending FlightAware ADS-B
Fri 04:58:43 AM 13.8890 120.1560 62° Northeast 401 461 18,000 -2,447 Descending FlightAware ADS-B
Fri 04:59:15 AM 13.9230 120.2040 54° Northeast 395 455 16,800 -1,652 Descending FlightAware ADS-B
Fri 04:59:52 AM 13.9620 120.2580 53° Northeast 369 425 16,100 -609 Descending FlightAware ADS-B
Fri 05:02:00 AM 14.1037 120.4547 53° Northeast  Level Estimated
Fri 05:03:00 AM 14.1700 120.5470 53° Northeast  Level Estimated
Fri 05:03:51 AM 14.1410 120.5750 53° Northeast 308 354 14,000  Level FlightAware ADS-B
Fri 05:04:00 AM 14.2364 120.6394 53° Northeast  Level Estimated
Fri 05:04:38 AM 14.1560 120.6410 77° East 308 354 14,000  Level FlightAware ADS-B
Fri 05:07:00 AM 14.3388 120.8370 46° Northeast  Level Estimated
Fri 05:07:05 AM 14.2050 120.8540 46° Northeast 299 344 13,000  Level FlightAware ADS-B
Fri 05:08:10 AM 14.2240 120.9370 77° East 265 305 13,000  Level FlightAware ADS-B
Fri 05:09:02 AM 14.2570 120.9940 59° Northeast 268 308 13,000  Level FlightAware ADS-B
Fri 05:09:40 AM 14.2970 121.0170 29° Northeast 276 318 13,000 -252 Level FlightAware ADS-B
Fri 05:11:01 AM 14.3970 121.0040 353° North 262 302 12,500 -470 Descending FlightAware ADS-B
Fri 05:13:17 AM 14.5310 120.9140 327° Northwest 257 296 11,300 -414 Descending FlightAware ADS-B
Fri 05:13:55 AM 14.5550 120.8760 303° West 253 291 11,300  Level FlightAware ADS-B
Fri 05:14:32 AM 14.5780 120.8360 301° West 257 296 11,300  Level FlightAware ADS-B
Fri 05:15:19 AM 14.6060 120.7870 301° West 257 296 11,300 -348 Level FlightAware ADS-B
Fri 05:17:00 AM 14.5316 120.9649 113° Southeast  Level Estimated
Fri 05:17:59 AM 14.5920 120.6350 113° Southeast 235 270 10,100  Level FlightAware ADS-B
Fri 05:18:00 AM 14.5086 121.0196 113° Southeast  Level Estimated
Fri 05:18:16 AM 14.5780 120.6220 222° Southwest 234 269 9,800  Level FlightAware ADS-B
Fri 05:19:06 AM 14.5370 120.5840 222° Southwest 235 270 8,900 -1,080 Descending FlightAware ADS-B

Login

Don't have an account? Register now (free) for customized features, flight alerts, and more!